sensor_id;sensor_type;location;lat;lon;timestamp;pressure;altitude;pressure_sealevel;temperature;humidity
70229;BME280;57617;51.988;5.854;2023-01-29T00:01:15;102554.94;;;5.29;64.44
70229;BME280;57617;51.988;5.854;2023-01-29T00:03:40;102565.75;;;5.37;64.91
70229;BME280;57617;51.988;5.854;2023-01-29T00:06:07;102561.91;;;5.40;64.44
70229;BME280;57617;51.988;5.854;2023-01-29T00:08:34;102564.75;;;5.38;64.66
70229;BME280;57617;51.988;5.854;2023-01-29T00:11:04;102570.28;;;5.37;64.67
70229;BME280;57617;51.988;5.854;2023-01-29T00:13:30;102570.13;;;5.30;64.39
70229;BME280;57617;51.988;5.854;2023-01-29T00:15:57;102562.06;;;5.30;64.42
70229;BME280;57617;51.988;5.854;2023-01-29T00:18:23;102565.91;;;5.28;64.18
70229;BME280;57617;51.988;5.854;2023-01-29T00:20:48;102538.72;;;5.05;64.00
70229;BME280;57617;51.988;5.854;2023-01-29T00:23:14;102559.97;;;5.24;64.59
70229;BME280;57617;51.988;5.854;2023-01-29T00:25:40;102556.13;;;5.27;64.31
70229;BME280;57617;51.988;5.854;2023-01-29T00:28:05;102553.44;;;5.27;64.67
70229;BME280;57617;51.988;5.854;2023-01-29T00:30:31;102540.16;;;5.25;64.32
70229;BME280;57617;51.988;5.854;2023-01-29T00:32:56;102485.00;;;4.96;64.17
70229;BME280;57617;51.988;5.854;2023-01-29T00:35:21;102535.59;;;5.26;64.32
70229;BME280;57617;51.988;5.854;2023-01-29T00:37:47;102537.59;;;5.24;64.31
70229;BME280;57617;51.988;5.854;2023-01-29T00:40:12;102533.41;;;5.21;64.21
70229;BME280;57617;51.988;5.854;2023-01-29T00:42:37;102520.59;;;5.15;64.62
70229;BME280;57617;51.988;5.854;2023-01-29T00:45:21;102525.78;;;5.17;64.54
70229;BME280;57617;51.988;5.854;2023-01-29T00:47:46;102524.25;;;5.14;64.08
70229;BME280;57617;51.988;5.854;2023-01-29T00:50:12;102523.28;;;5.15;64.17
70229;BME280;57617;51.988;5.854;2023-01-29T00:52:37;102516.88;;;5.16;64.34
70229;BME280;57617;51.988;5.854;2023-01-29T00:55:06;102518.06;;;5.14;64.31
70229;BME280;57617;51.988;5.854;2023-01-29T00:57:33;102521.75;;;5.13;64.20
70229;BME280;57617;51.988;5.854;2023-01-29T00:59:58;102531.53;;;5.14;64.18
70229;BME280;57617;51.988;5.854;2023-01-29T01:02:24;102533.19;;;5.15;64.30
70229;BME280;57617;51.988;5.854;2023-01-29T01:05:10;102536.75;;;5.15;64.42
70229;BME280;57617;51.988;5.854;2023-01-29T01:07:43;102533.19;;;5.15;64.44
70229;BME280;57617;51.988;5.854;2023-01-29T01:10:15;102527.81;;;5.15;64.41
70229;BME280;57617;51.988;5.854;2023-01-29T01:12:57;102535.03;;;5.14;64.04
70229;BME280;57617;51.988;5.854;2023-01-29T01:15:25;102528.81;;;5.14;64.07
70229;BME280;57617;51.988;5.854;2023-01-29T01:17:55;102533.53;;;5.12;64.17
70229;BME280;57617;51.988;5.854;2023-01-29T01:20:21;102529.31;;;5.09;64.48
70229;BME280;57617;51.988;5.854;2023-01-29T01:22:47;102525.78;;;5.09;64.24
70229;BME280;57617;51.988;5.854;2023-01-29T01:25:13;102516.69;;;5.10;64.34
70229;BME280;57617;51.988;5.854;2023-01-29T01:27:38;102519.53;;;5.08;64.33
70229;BME280;57617;51.988;5.854;2023-01-29T01:30:07;102505.25;;;5.08;64.43
70229;BME280;57617;51.988;5.854;2023-01-29T01:32:33;102511.66;;;5.07;64.48
70229;BME280;57617;51.988;5.854;2023-01-29T01:34:58;102515.84;;;5.09;64.23
70229;BME280;57617;51.988;5.854;2023-01-29T01:37:23;102520.22;;;5.10;64.41
70229;BME280;57617;51.988;5.854;2023-01-29T01:39:49;102516.03;;;5.08;64.30
70229;BME280;57617;51.988;5.854;2023-01-29T01:42:14;102522.22;;;5.08;64.54
70229;BME280;57617;51.988;5.854;2023-01-29T01:45:00;102513.31;;;5.08;64.51
70229;BME280;57617;51.988;5.854;2023-01-29T01:48:00;102519.72;;;5.07;64.39
70229;BME280;57617;51.988;5.854;2023-01-29T01:50:34;102510.94;;;5.05;64.52
70229;BME280;57617;51.988;5.854;2023-01-29T01:53:06;102510.94;;;5.05;64.67
70229;BME280;57617;51.988;5.854;2023-01-29T01:55:34;102514.50;;;5.05;64.47
70229;BME280;57617;51.988;5.854;2023-01-29T01:58:11;102522.88;;;5.02;64.34
70229;BME280;57617;51.988;5.854;2023-01-29T02:00:37;102517.50;;;4.94;64.63
70229;BME280;57617;51.988;5.854;2023-01-29T02:03:03;102532.47;;;4.97;64.33
70229;BME280;57617;51.988;5.854;2023-01-29T02:05:49;102538.00;;;4.95;64.24
70229;BME280;57617;51.988;5.854;2023-01-29T02:08:44;102534.63;;;4.93;64.56
70229;BME280;57617;51.988;5.854;2023-01-29T02:11:30;102524.19;;;4.90;64.19
70229;BME280;57617;51.988;5.854;2023-01-29T02:13:55;102521.66;;;4.89;64.29
70229;BME280;57617;51.988;5.854;2023-01-29T02:16:21;102528.22;;;4.86;64.42
70229;BME280;57617;51.988;5.854;2023-01-29T02:18:48;102525.66;;;4.85;64.93
70229;BME280;57617;51.988;5.854;2023-01-29T02:25:00;102529.22;;;4.85;64.76
70229;BME280;57617;51.988;5.854;2023-01-29T02:30:32;102527.53;;;4.84;64.85
70229;BME280;57617;51.988;5.854;2023-01-29T02:33:04;102512.72;;;4.80;64.63
70229;BME280;57617;51.988;5.854;2023-01-29T02:35:44;102519.09;;;4.79;64.84
70229;BME280;57617;51.988;5.854;2023-01-29T02:38:30;102518.41;;;4.77;65.19
70229;BME280;57617;51.988;5.854;2023-01-29T02:41:14;102519.41;;;4.76;64.70
70229;BME280;57617;51.988;5.854;2023-01-29T02:46:59;102518.41;;;4.77;65.02
70229;BME280;57617;51.988;5.854;2023-01-29T02:49:35;102519.56;;;4.75;64.62
70229;BME280;57617;51.988;5.854;2023-01-29T02:52:08;102519.72;;;4.73;64.87
70229;BME280;57617;51.988;5.854;2023-01-29T02:55:29;102526.13;;;4.72;65.01
70229;BME280;57617;51.988;5.854;2023-01-29T02:57:47;102528.81;;;4.72;64.73
70229;BME280;57617;51.988;5.854;2023-01-29T03:00:19;102534.91;;;4.74;64.94
70229;BME280;57617;51.988;5.854;2023-01-29T03:03:02;102534.91;;;4.74;65.09
70229;BME280;57617;51.988;5.854;2023-01-29T03:05:39;102534.03;;;4.74;64.71
70229;BME280;57617;51.988;5.854;2023-01-29T03:08:11;102532.88;;;4.76;64.73
70229;BME280;57617;51.988;5.854;2023-01-29T03:10:45;102534.56;;;4.77;64.82
70229;BME280;57617;51.988;5.854;2023-01-29T03:13:18;102528.50;;;4.75;65.02
70229;BME280;57617;51.988;5.854;2023-01-29T03:15:48;102533.53;;;4.78;64.52
70229;BME280;57617;51.988;5.854;2023-01-29T03:18:21;102533.38;;;4.80;64.63
70229;BME280;57617;51.988;5.854;2023-01-29T03:20:56;102502.06;;;4.71;64.87
70229;BME280;57617;51.988;5.854;2023-01-29T03:23:26;102512.88;;;4.79;64.80
70229;BME280;57617;51.988;5.854;2023-01-29T03:26:14;102510.31;;;4.77;65.06
70229;BME280;57617;51.988;5.854;2023-01-29T03:29:00;102500.72;;;4.75;64.72
70229;BME280;57617;51.988;5.854;2023-01-29T03:31:47;102501.25;;;4.78;64.62
70229;BME280;57617;51.988;5.854;2023-01-29T03:34:30;102482.38;;;4.70;64.61
70229;BME280;57617;51.988;5.854;2023-01-29T03:37:02;102486.44;;;4.74;64.65
70229;BME280;57617;51.988;5.854;2023-01-29T03:39:32;102485.09;;;4.78;64.85
70229;BME280;57617;51.988;5.854;2023-01-29T03:47:17;102469.97;;;4.77;64.75
70229;BME280;57617;51.988;5.854;2023-01-29T03:52:45;102465.75;;;4.75;64.74
70229;BME280;57617;51.988;5.854;2023-01-29T03:55:19;102463.56;;;4.70;65.01
70229;BME280;57617;51.988;5.854;2023-01-29T03:57:59;102470.31;;;4.74;65.15
70229;BME280;57617;51.988;5.854;2023-01-29T04:00:33;102461.00;;;4.69;65.20
70229;BME280;57617;51.988;5.854;2023-01-29T04:03:20;102460.72;;;4.72;65.06
70229;BME280;57617;51.988;5.854;2023-01-29T04:05:52;102456.50;;;4.69;65.13
70229;BME280;57617;51.988;5.854;2023-01-29T04:08:27;102457.50;;;4.68;65.10
70229;BME280;57617;51.988;5.854;2023-01-29T04:10:58;102466.56;;;4.67;65.17
70229;BME280;57617;51.988;5.854;2023-01-29T04:13:26;102470.78;;;4.70;65.31
70229;BME280;57617;51.988;5.854;2023-01-29T04:15:58;102476.00;;;4.71;65.06
70229;BME280;57617;51.988;5.854;2023-01-29T04:18:25;102468.44;;;4.75;65.25
70229;BME280;57617;51.988;5.854;2023-01-29T04:20:50;102459.34;;;4.76;65.02
70229;BME280;57617;51.988;5.854;2023-01-29T04:23:24;102455.84;;;4.75;65.18
70229;BME280;57617;51.988;5.854;2023-01-29T04:26:20;102449.13;;;4.79;65.10
70229;BME280;57617;51.988;5.854;2023-01-29T04:28:58;102434.81;;;4.79;65.05
70229;BME280;57617;51.988;5.854;2023-01-29T04:31:27;102435.66;;;4.79;65.21
70229;BME280;57617;51.988;5.854;2023-01-29T04:37:01;102431.63;;;4.83;65.38
70229;BME280;57617;51.988;5.854;2023-01-29T04:45:00;102442.88;;;4.79;65.41
70229;BME280;57617;51.988;5.854;2023-01-29T04:47:40;102443.75;;;4.79;65.12
70229;BME280;57617;51.988;5.854;2023-01-29T04:50:22;102437.34;;;4.80;65.13
70229;BME280;57617;51.988;5.854;2023-01-29T04:52:59;102431.28;;;4.78;65.19
70229;BME280;57617;51.988;5.854;2023-01-29T04:58:19;102423.75;;;4.82;65.59
70229;BME280;57617;51.988;5.854;2023-01-29T05:00:52;102422.03;;;4.81;65.40
70229;BME280;57617;51.988;5.854;2023-01-29T05:03:20;102414.13;;;4.79;65.42
70229;BME280;57617;51.988;5.854;2023-01-29T05:05:48;102418.50;;;4.80;65.24
70229;BME280;57617;51.988;5.854;2023-01-29T05:08:18;102420.19;;;4.81;65.67
70229;BME280;57617;51.988;5.854;2023-01-29T05:10:47;102419.53;;;4.79;65.36
70229;BME280;57617;51.988;5.854;2023-01-29T05:13:14;102414.44;;;4.76;65.54
70229;BME280;57617;51.988;5.854;2023-01-29T05:15:43;102417.00;;;4.78;65.22
70229;BME280;57617;51.988;5.854;2023-01-29T05:18:11;102411.75;;;4.76;65.35
70229;BME280;57617;51.988;5.854;2023-01-29T05:20:39;102408.91;;;4.78;65.48
70229;BME280;57617;51.988;5.854;2023-01-29T05:23:15;102405.06;;;4.80;65.42
70229;BME280;57617;51.988;5.854;2023-01-29T05:25:41;102408.75;;;4.79;65.71
70229;BME280;57617;51.988;5.854;2023-01-29T05:28:08;102416.47;;;4.82;65.75
70229;BME280;57617;51.988;5.854;2023-01-29T05:30:41;102415.47;;;4.83;65.41
70229;BME280;57617;51.988;5.854;2023-01-29T05:33:17;102408.25;;;4.84;65.71
70229;BME280;57617;51.988;5.854;2023-01-29T05:35:43;102409.41;;;4.81;65.36
70229;BME280;57617;51.988;5.854;2023-01-29T05:38:09;102413.13;;;4.80;65.49
70229;BME280;57617;51.988;5.854;2023-01-29T05:40:35;102419.34;;;4.81;65.58
70229;BME280;57617;51.988;5.854;2023-01-29T05:43:00;102427.41;;;4.81;65.48
70229;BME280;57617;51.988;5.854;2023-01-29T05:45:26;102435.47;;;4.81;65.30
70229;BME280;57617;51.988;5.854;2023-01-29T05:47:58;102434.81;;;4.79;65.32
70229;BME280;57617;51.988;5.854;2023-01-29T05:50:25;102437.66;;;4.77;65.36
70229;BME280;57617;51.988;5.854;2023-01-29T05:53:00;102431.97;;;4.80;65.58
70229;BME280;57617;51.988;5.854;2023-01-29T05:55:27;102431.97;;;4.80;65.06
70229;BME280;57617;51.988;5.854;2023-01-29T05:57:54;102437.84;;;4.84;65.56
70229;BME280;57617;51.988;5.854;2023-01-29T06:00:19;102436.19;;;4.83;65.56
70229;BME280;57617;51.988;5.854;2023-01-29T06:02:45;102429.94;;;4.82;65.14
70229;BME280;57617;51.988;5.854;2023-01-29T06:05:10;102420.84;;;4.83;65.44
70229;BME280;57617;51.988;5.854;2023-01-29T06:07:35;102378.25;;;4.63;65.48
70229;BME280;57617;51.988;5.854;2023-01-29T06:10:02;102397.16;;;4.87;65.49
70229;BME280;57617;51.988;5.854;2023-01-29T06:12:27;102394.28;;;4.88;65.41
70229;BME280;57617;51.988;5.854;2023-01-29T06:14:53;102395.31;;;4.87;65.65
70229;BME280;57617;51.988;5.854;2023-01-29T06:17:18;102400.53;;;4.89;65.75
70229;BME280;57617;51.988;5.854;2023-01-29T06:19:43;102408.59;;;4.89;65.60
70229;BME280;57617;51.988;5.854;2023-01-29T06:22:09;102409.97;;;4.93;65.46
70229;BME280;57617;51.988;5.854;2023-01-29T06:24:34;102393.31;;;4.89;65.63
70229;BME280;57617;51.988;5.854;2023-01-29T06:26:59;102388.44;;;4.93;65.46
70229;BME280;57617;51.988;5.854;2023-01-29T06:29:25;102390.25;;;4.92;65.55
70229;BME280;57617;51.988;5.854;2023-01-29T06:31:50;102389.44;;;4.92;65.72
70229;BME280;57617;51.988;5.854;2023-01-29T06:34:15;102384.53;;;4.87;65.25
70229;BME280;57617;51.988;5.854;2023-01-29T06:36:41;102386.06;;;4.90;65.21
70229;BME280;57617;51.988;5.854;2023-01-29T06:39:06;102393.13;;;4.91;65.40
70229;BME280;57617;51.988;5.854;2023-01-29T06:41:31;102375.13;;;4.91;65.43
70229;BME280;57617;51.988;5.854;2023-01-29T06:43:57;102382.19;;;4.92;65.54
70229;BME280;57617;51.988;5.854;2023-01-29T06:46:22;102374.81;;;4.94;65.74
70229;BME280;57617;51.988;5.854;2023-01-29T06:48:47;102389.94;;;4.95;65.81
70229;BME280;57617;51.988;5.854;2023-01-29T06:51:13;102384.72;;;4.94;65.32
70229;BME280;57617;51.988;5.854;2023-01-29T06:53:39;102388.44;;;4.93;65.27
70229;BME280;57617;51.988;5.854;2023-01-29T06:56:05;102398.34;;;4.92;65.65
70229;BME280;57617;51.988;5.854;2023-01-29T06:58:31;102391.78;;;4.95;65.58
70229;BME280;57617;51.988;5.854;2023-01-29T07:01:04;102397.66;;;4.98;65.61
70229;BME280;57617;51.988;5.854;2023-01-29T07:03:30;102394.00;;;4.99;65.37
70229;BME280;57617;51.988;5.854;2023-01-29T07:05:55;102391.97;;;5.01;65.77
70229;BME280;57617;51.988;5.854;2023-01-29T07:08:20;102388.25;;;5.02;65.35
70229;BME280;57617;51.988;5.854;2023-01-29T07:10:47;102369.94;;;4.98;65.45
70229;BME280;57617;51.988;5.854;2023-01-29T07:13:13;102387.78;;;5.07;65.75
70229;BME280;57617;51.988;5.854;2023-01-29T07:15:38;102381.38;;;5.08;65.37
70229;BME280;57617;51.988;5.854;2023-01-29T07:18:04;102359.47;;;4.87;65.21
70229;BME280;57617;51.988;5.854;2023-01-29T07:20:36;102377.50;;;5.02;65.30
70229;BME280;57617;51.988;5.854;2023-01-29T07:23:02;102388.63;;;4.99;65.37
70229;BME280;57617;51.988;5.854;2023-01-29T07:25:27;102381.53;;;4.98;65.54
70229;BME280;57617;51.988;5.854;2023-01-29T07:27:54;102393.16;;;4.99;65.41
70229;BME280;57617;51.988;5.854;2023-01-29T07:30:20;102377.50;;;5.02;65.34
70229;BME280;57617;51.988;5.854;2023-01-29T07:32:45;102379.53;;;5.00;65.24
70229;BME280;57617;51.988;5.854;2023-01-29T07:35:10;102386.06;;;4.98;65.48
70229;BME280;57617;51.988;5.854;2023-01-29T07:37:36;102388.78;;;4.98;65.37
70229;BME280;57617;51.988;5.854;2023-01-29T07:40:02;102390.28;;;5.00;65.62
70229;BME280;57617;51.988;5.854;2023-01-29T07:42:29;102392.28;;;4.98;65.51
70229;BME280;57617;51.988;5.854;2023-01-29T07:44:54;102388.63;;;4.99;65.45
70229;BME280;57617;51.988;5.854;2023-01-29T07:47:19;102390.94;;;5.02;65.64
70229;BME280;57617;51.988;5.854;2023-01-29T07:49:44;102392.47;;;5.05;65.49
70229;BME280;57617;51.988;5.854;2023-01-29T07:52:10;102385.41;;;5.04;65.09
70229;BME280;57617;51.988;5.854;2023-01-29T07:54:35;102377.34;;;5.04;65.45
70229;BME280;57617;51.988;5.854;2023-01-29T07:57:00;102375.50;;;5.04;65.32
70229;BME280;57617;51.988;5.854;2023-01-29T07:59:25;102347.38;;;4.99;65.27
70229;BME280;57617;51.988;5.854;2023-01-29T08:01:51;102359.84;;;5.08;65.54
70229;BME280;57617;51.988;5.854;2023-01-29T08:04:16;102352.44;;;5.10;65.40
70229;BME280;57617;51.988;5.854;2023-01-29T08:06:41;102339.66;;;5.12;65.28
70229;BME280;57617;51.988;5.854;2023-01-29T08:09:07;102337.13;;;5.10;65.46
70229;BME280;57617;51.988;5.854;2023-01-29T08:11:33;102335.25;;;5.11;65.48
70229;BME280;57617;51.988;5.854;2023-01-29T08:13:58;102336.78;;;5.13;65.49
70229;BME280;57617;51.988;5.854;2023-01-29T08:16:23;102349.22;;;5.14;65.25
70229;BME280;57617;51.988;5.854;2023-01-29T08:18:48;102356.13;;;5.17;65.15
70229;BME280;57617;51.988;5.854;2023-01-29T08:21:14;102350.56;;;5.18;65.47
70229;BME280;57617;51.988;5.854;2023-01-29T08:23:39;102357.84;;;5.18;65.38
70229;BME280;57617;51.988;5.854;2023-01-29T08:26:05;102354.28;;;5.17;65.52
70229;BME280;57617;51.988;5.854;2023-01-29T08:28:30;102346.19;;;5.17;65.47
70229;BME280;57617;51.988;5.854;2023-01-29T08:30:56;102337.81;;;5.20;65.33
70229;BME280;57617;51.988;5.854;2023-01-29T08:33:21;102329.38;;;5.23;65.19
70229;BME280;57617;51.988;5.854;2023-01-29T08:35:50;102339.97;;;5.25;65.72
70229;BME280;57617;51.988;5.854;2023-01-29T08:38:16;102319.59;;;5.22;65.53
70229;BME280;57617;51.988;5.854;2023-01-29T08:40:42;102320.59;;;5.29;65.17
70229;BME280;57617;51.988;5.854;2023-01-29T08:43:08;102321.13;;;5.33;65.14
70229;BME280;57617;51.988;5.854;2023-01-29T08:45:36;102315.22;;;5.37;65.05
70229;BME280;57617;51.988;5.854;2023-01-29T08:48:02;102311.34;;;5.40;65.14
70229;BME280;57617;51.988;5.854;2023-01-29T08:50:28;102308.00;;;5.38;64.77
70229;BME280;57617;51.988;5.854;2023-01-29T08:52:58;102305.28;;;5.38;64.94
70229;BME280;57617;51.988;5.854;2023-01-29T08:55:24;102308.66;;;5.40;64.75
70229;BME280;57617;51.988;5.854;2023-01-29T08:57:49;102299.72;;;5.39;65.06
70229;BME280;57617;51.988;5.854;2023-01-29T09:00:15;102302.06;;;5.42;65.00
70229;BME280;57617;51.988;5.854;2023-01-29T09:02:40;102310.66;;;5.46;64.99
70229;BME280;57617;51.988;5.854;2023-01-29T09:05:06;102309.47;;;5.48;64.93
70229;BME280;57617;51.988;5.854;2023-01-29T09:07:32;102311.84;;;5.51;64.52
70229;BME280;57617;51.988;5.854;2023-01-29T09:09:57;102306.44;;;5.51;65.02
70229;BME280;57617;51.988;5.854;2023-01-29T09:12:22;102309.16;;;5.51;64.38
70229;BME280;57617;51.988;5.854;2023-01-29T09:14:48;102310.81;;;5.52;64.42
70229;BME280;57617;51.988;5.854;2023-01-29T09:17:13;102310.81;;;5.52;64.67
70229;BME280;57617;51.988;5.854;2023-01-29T09:19:38;102309.63;;;5.55;64.14
70229;BME280;57617;51.988;5.854;2023-01-29T09:22:03;102302.22;;;5.57;64.42
70229;BME280;57617;51.988;5.854;2023-01-29T09:24:29;102305.06;;;5.55;64.26
70229;BME280;57617;51.988;5.854;2023-01-29T09:26:54;102303.06;;;5.57;64.70
70229;BME280;57617;51.988;5.854;2023-01-29T09:29:19;102309.28;;;5.58;64.64
70229;BME280;57617;51.988;5.854;2023-01-29T09:31:45;102315.53;;;5.58;64.84
70229;BME280;57617;51.988;5.854;2023-01-29T09:34:10;102302.69;;;5.60;64.64
70229;BME280;57617;51.988;5.854;2023-01-29T09:36:35;102311.47;;;5.62;63.95
70229;BME280;57617;51.988;5.854;2023-01-29T09:39:01;102302.88;;;5.67;64.16
70229;BME280;57617;51.988;5.854;2023-01-29T09:44:01;102304.38;;;5.69;64.28
70229;BME280;57617;51.988;5.854;2023-01-29T09:46:43;102303.34;;;5.70;64.23
70229;BME280;57617;51.988;5.854;2023-01-29T09:49:27;102304.19;;;5.71;64.01
70229;BME280;57617;51.988;5.854;2023-01-29T09:57:58;102306.03;;;5.70;63.79
70229;BME280;57617;51.988;5.854;2023-01-29T10:00:46;102298.66;;;5.72;63.46
70229;BME280;57617;51.988;5.854;2023-01-29T10:06:02;102304.88;;;5.73;64.08
70229;BME280;57617;51.988;5.854;2023-01-29T10:11:50;102292.72;;;5.77;63.61
70229;BME280;57617;51.988;5.854;2023-01-29T10:17:26;102277.59;;;5.68;63.89
70229;BME280;57617;51.988;5.854;2023-01-29T10:20:18;102299.81;;;5.86;64.00
70229;BME280;57617;51.988;5.854;2023-01-29T10:25:26;102292.91;;;5.91;63.79
70229;BME280;57617;51.988;5.854;2023-01-29T10:27:55;102292.03;;;5.91;63.90
70229;BME280;57617;51.988;5.854;2023-01-29T10:30:52;102293.56;;;5.93;62.87
70229;BME280;57617;51.988;5.854;2023-01-29T10:33:40;102294.22;;;5.95;62.81
70229;BME280;57617;51.988;5.854;2023-01-29T10:36:19;102296.25;;;5.93;63.72
70229;BME280;57617;51.988;5.854;2023-01-29T10:38:48;102288.16;;;5.93;63.51
70229;BME280;57617;51.988;5.854;2023-01-29T10:41:38;102290.00;;;5.93;63.38
70229;BME280;57617;51.988;5.854;2023-01-29T10:57:33;102251.38;;;6.00;63.27
70229;BME280;57617;51.988;5.854;2023-01-29T11:00:08;102239.31;;;5.88;62.94
70229;BME280;57617;51.988;5.854;2023-01-29T11:02:42;102248.50;;;6.02;62.82
70229;BME280;57617;51.988;5.854;2023-01-29T11:05:34;102241.28;;;6.02;62.62
70229;BME280;57617;51.988;5.854;2023-01-29T11:08:06;102226.09;;;6.01;63.07
70229;BME280;57617;51.988;5.854;2023-01-29T11:13:28;102228.44;;;6.04;62.85
70229;BME280;57617;51.988;5.854;2023-01-29T11:15:55;102213.75;;;6.07;63.52
70229;BME280;57617;51.988;5.854;2023-01-29T11:18:20;102216.94;;;6.10;62.82
70229;BME280;57617;51.988;5.854;2023-01-29T11:20:59;102195.78;;;5.99;62.37
70229;BME280;57617;51.988;5.854;2023-01-29T11:23:27;102210.34;;;6.13;62.78
70229;BME280;57617;51.988;5.854;2023-01-29T11:25:54;102193.81;;;6.16;63.51
70229;BME280;57617;51.988;5.854;2023-01-29T11:28:36;102201.38;;;6.20;62.59
70229;BME280;57617;51.988;5.854;2023-01-29T11:31:01;102190.41;;;6.22;62.25
70229;BME280;57617;51.988;5.854;2023-01-29T11:33:27;102173.66;;;6.26;62.95
70229;BME280;57617;51.988;5.854;2023-01-29T11:35:53;102170.63;;;6.29;62.66
70229;BME280;57617;51.988;5.854;2023-01-29T11:38:25;102165.72;;;6.33;62.21
70229;BME280;57617;51.988;5.854;2023-01-29T11:40:51;102172.59;;;6.35;62.62
70229;BME280;57617;51.988;5.854;2023-01-29T11:45:55;102169.72;;;6.37;62.64
70229;BME280;57617;51.988;5.854;2023-01-29T11:48:38;102163.69;;;6.35;62.38
70229;BME280;57617;51.988;5.854;2023-01-29T11:51:05;102159.97;;;6.36;62.23
70229;BME280;57617;51.988;5.854;2023-01-29T11:55:59;102158.38;;;6.41;62.79
70229;BME280;57617;51.988;5.854;2023-01-29T11:58:29;102157.19;;;6.44;62.43
70229;BME280;57617;51.988;5.854;2023-01-29T12:00:56;102146.22;;;6.45;62.92
70229;BME280;57617;51.988;5.854;2023-01-29T12:06:20;102132.53;;;6.47;62.84
70229;BME280;57617;51.988;5.854;2023-01-29T12:08:58;102132.72;;;6.45;62.78
70229;BME280;57617;51.988;5.854;2023-01-29T12:13:54;102128.66;;;6.49;62.29
70229;BME280;57617;51.988;5.854;2023-01-29T12:16:31;102124.44;;;6.47;62.25
70229;BME280;57617;51.988;5.854;2023-01-29T12:21:31;102127.78;;;6.49;62.73
70229;BME280;57617;51.988;5.854;2023-01-29T12:24:13;102120.84;;;6.54;62.27
70229;BME280;57617;51.988;5.854;2023-01-29T12:26:48;102116.75;;;6.58;62.79
70229;BME280;57617;51.988;5.854;2023-01-29T12:32:11;102108.84;;;6.57;62.38
70229;BME280;57617;51.988;5.854;2023-01-29T12:34:56;102088.81;;;6.51;62.99
70229;BME280;57617;51.988;5.854;2023-01-29T12:37:47;102095.88;;;6.52;62.30
70229;BME280;57617;51.988;5.854;2023-01-29T12:40:16;102086.66;;;6.47;62.25
70229;BME280;57617;51.988;5.854;2023-01-29T12:42:46;102080.25;;;6.48;62.74
70229;BME280;57617;51.988;5.854;2023-01-29T12:45:18;102073.81;;;6.49;62.22
70229;BME280;57617;51.988;5.854;2023-01-29T12:47:48;102072.63;;;6.51;62.60
70229;BME280;57617;51.988;5.854;2023-01-29T12:50:20;102071.59;;;6.52;62.69
70229;BME280;57617;51.988;5.854;2023-01-29T12:52:51;102065.38;;;6.52;62.15
70229;BME280;57617;51.988;5.854;2023-01-29T12:55:24;102053.72;;;6.51;62.68
70229;BME280;57617;51.988;5.854;2023-01-29T12:57:56;102050.00;;;6.52;62.08
70229;BME280;57617;51.988;5.854;2023-01-29T13:00:25;102046.94;;;6.55;62.37
70229;BME280;57617;51.988;5.854;2023-01-29T13:03:00;102039.50;;;6.57;62.38
70229;BME280;57617;51.988;5.854;2023-01-29T13:05:44;102036.16;;;6.55;62.71
70229;BME280;57617;51.988;5.854;2023-01-29T13:08:16;102034.09;;;6.57;62.61
70229;BME280;57617;51.988;5.854;2023-01-29T13:10:47;102026.22;;;6.56;62.24
70229;BME280;57617;51.988;5.854;2023-01-29T13:13:32;102017.91;;;6.57;62.49
70229;BME280;57617;51.988;5.854;2023-01-29T13:16:02;102014.00;;;6.60;62.88
70229;BME280;57617;51.988;5.854;2023-01-29T13:18:40;102008.81;;;6.58;62.93
70229;BME280;57617;51.988;5.854;2023-01-29T13:21:12;102000.88;;;6.57;62.81
70229;BME280;57617;51.988;5.854;2023-01-29T13:23:42;101996.78;;;6.61;63.11
70229;BME280;57617;51.988;5.854;2023-01-29T13:26:10;101998.66;;;6.60;62.33
70229;BME280;57617;51.988;5.854;2023-01-29T13:28:35;101990.53;;;6.60;62.41
70229;BME280;57617;51.988;5.854;2023-01-29T13:31:10;101989.91;;;6.58;62.61
70229;BME280;57617;51.988;5.854;2023-01-29T13:33:37;101984.13;;;6.61;62.68
70229;BME280;57617;51.988;5.854;2023-01-29T13:36:12;101979.56;;;6.62;63.25
70229;BME280;57617;51.988;5.854;2023-01-29T13:38:39;101977.69;;;6.62;63.42
70229;BME280;57617;51.988;5.854;2023-01-29T13:41:06;101965.22;;;6.61;63.28
70229;BME280;57617;51.988;5.854;2023-01-29T13:43:37;101964.75;;;6.58;63.34
70229;BME280;57617;51.988;5.854;2023-01-29T13:46:13;101957.69;;;6.57;63.77
70229;BME280;57617;51.988;5.854;2023-01-29T13:48:44;101956.03;;;6.56;63.55
70229;BME280;57617;51.988;5.854;2023-01-29T13:51:13;101958.50;;;6.57;63.77
70229;BME280;57617;51.988;5.854;2023-01-29T13:53:52;101956.66;;;6.58;63.02
70229;BME280;57617;51.988;5.854;2023-01-29T13:56:44;101951.09;;;6.59;63.38
70229;BME280;57617;51.988;5.854;2023-01-29T13:59:23;101935.44;;;6.55;63.31
70229;BME280;57617;51.988;5.854;2023-01-29T14:06:46;101934.31;;;6.64;63.26
70229;BME280;57617;51.988;5.854;2023-01-29T14:11:55;101933.78;;;6.68;63.98
70229;BME280;57617;51.988;5.854;2023-01-29T14:17:20;101934.88;;;6.74;64.00
70229;BME280;57617;51.988;5.854;2023-01-29T14:19:51;101934.69;;;6.75;63.72
70229;BME280;57617;51.988;5.854;2023-01-29T14:22:26;101927.63;;;6.74;63.25
70229;BME280;57617;51.988;5.854;2023-01-29T14:24:56;101928.66;;;6.73;63.13
70229;BME280;57617;51.988;5.854;2023-01-29T14:27:23;101932.16;;;6.74;63.26
70229;BME280;57617;51.988;5.854;2023-01-29T14:30:02;101921.56;;;6.72;63.18
70229;BME280;57617;51.988;5.854;2023-01-29T14:32:30;101926.59;;;6.75;63.16
70229;BME280;57617;51.988;5.854;2023-01-29T14:35:01;101923.25;;;6.73;63.48
70229;BME280;57617;51.988;5.854;2023-01-29T14:37:33;101930.69;;;6.71;63.23
70229;BME280;57617;51.988;5.854;2023-01-29T14:42:58;101921.50;;;6.66;63.49
70229;BME280;57617;51.988;5.854;2023-01-29T14:45:36;101919.78;;;6.65;63.49
70229;BME280;57617;51.988;5.854;2023-01-29T14:56:02;101916.00;;;6.59;63.33
70229;BME280;57617;51.988;5.854;2023-01-29T14:58:41;101908.72;;;6.60;63.24
70229;BME280;57617;51.988;5.854;2023-01-29T15:01:32;101911.63;;;6.58;63.31